Latest Weather Observations for Hay Airport

IDN60801

Issued at 11:02 am EDT Thursday 2 April 2015 (issued every 30 minutes, with the page automatically refreshed every 10 minutes)

About weather observations | Map of weather stations | Latest weather observations for NSW | Other Formats
Station Details ID: 075019 Name: HAY AIRPORT AWS Lat: -34.54 Lon: 144.83 Height: 92.0 m
Data from the previous 72 hours. | See also: Recent months for locations in New South Wales
Date/Time
EDT
Temp
°C
App
Temp
°C
Dew
Point
Rel
Hum
%
Delta-T
°C
Wind Press
QNH
hPa
Press
MSL
hPa
Rain
since 9 am
mm
Dir
 
Spd
km/h
Gust
km/h
Spd
kts
Gust
kts
02/11:00am 19.5 13.3 7.9 47 6.0 S 30 41 16 22 1020.9 1020.8 0.0
02/10:30am 18.4 12.0 8.7 53 5.0 SSW 32 41 17 22 1020.7 1020.6 0.0
02/10:00am 18.5 12.3 9.3 55 4.8 SSW 32 41 17 22 1020.3 1020.2 0.0
02/09:30am 18.0 12.5 10.6 62 4.0 SSW 30 39 16 21 1019.9 1019.8 0.0
02/09:00am 18.0 14.1 12.0 68 3.3 S 24 32 13 17 1018.9 1018.8 0.0
02/08:30am 19.6 16.0 14.2 71 3.1 SSW 26 32 14 17 1018.6 1018.5 0.0
02/08:00am 19.7 16.4 13.9 69 3.3 SSW 24 32 13 17 1018.2 1018.1 0.0
02/07:30am 19.9 16.5 13.8 68 3.5 SW 24 32 13 17 1017.9 1017.8 0.0
02/07:00am 20.5 17.3 13.2 63 4.2 SSW 22 32 12 17 1017.5 1017.4 0.0
02/06:30am 20.8 16.9 13.3 62 4.3 SSW 26 35 14 19 1016.9 1016.7 0.0
02/06:00am 21.1 17.6 13.3 61 4.5 SW 24 32 13 17 1016.8 1016.6 0.0
02/05:30am 21.1 18.3 13.3 61 4.5 SW 20 28 11 15 1016.6 1016.4 0.0
02/05:00am 21.3 18.6 13.5 61 4.5 SW 20 26 11 14 1016.3 1016.1 0.0
02/04:30am 21.5 18.6 12.9 58 4.9 SW 20 28 11 15 1016.1 1015.9 0.0
02/04:00am 21.8 19.5 11.8 53 5.6 SW 15 19 8 10 1016.0 1015.8 0.0
02/03:30am 22.1 18.7 11.2 50 6.1 SW 20 24 11 13 1016.1 1015.9 0.0
02/03:00am 22.5 18.1 9.0 42 7.2 SW 22 30 12 16 1016.1 1015.9 0.0
02/02:30am 22.4 19.4 7.8 39 7.7 NNW 13 17 7 9 1015.4 1015.2 0.0
02/02:00am 23.2 20.3 8.1 38 8.0 N 13 15 7 8 1015.1 1014.9 0.0
02/01:30am 23.0 20.5 8.3 39 7.8 N 11 11 6 6 1015.2 1015.0 0.0
02/01:00am 23.5 21.0 8.0 37 8.2 N 11 13 6 7 1015.3 1015.1 0.0
02/12:30am 24.3 21.5 8.7 37 8.4 N 13 15 7 8 1015.6 1015.4 0.0
02/12:00am 24.7 21.4 8.2 35 8.8 N 15 20 8 11 1015.6 1015.4 0.0
 
Date/Time
EDT
Temp
°C
App
Temp
°C
Dew
Point
Rel
Hum
%
Delta-T
°C
Wind Press
QNH
hPa
Press
MSL
hPa
Rain
since 9 am
mm
Dir
 
Spd
km/h
Gust
km/h
Spd
kts
Gust
kts
01/11:30pm 25.3 22.9 8.7 35 9.0 N 11 15 6 8 1015.6 1015.4 0.0
01/11:00pm 25.3 22.4 8.3 34 9.1 N 13 15 7 8 1015.9 1015.7 0.0
01/10:30pm 25.5 22.6 8.1 33 9.3 N 13 15 7 8 1015.8 1015.6 0.0
01/10:00pm 25.3 22.8 8.3 34 9.1 NNE 11 13 6 7 1015.7 1015.5 0.0
01/09:30pm 25.4 22.5 8.0 33 9.3 NNE 13 13 7 7 1015.5 1015.3 0.0
01/09:00pm 25.5 22.9 7.6 32 9.5 N 11 13 6 7 1015.5 1015.3 0.0
01/08:30pm 25.9 23.2 7.5 31 9.8 N 11 11 6 6 1015.3 1015.1 0.0
01/08:00pm 26.9 23.9 7.9 30 10.2 N 13 15 7 8 1015.2 1015.0 0.0
01/07:30pm 27.8 24.0 7.6 28 10.9 N 17 20 9 11 1015.0 1014.8 0.0
01/07:00pm 28.9 25.6 8.0 27 11.4 N 15 19 8 10 1014.9 1014.7 0.0
01/06:30pm 29.6 25.0 8.1 26 11.8 N 22 28 12 15 1014.9 1014.7 0.0
01/06:00pm 30.2 25.7 8.6 26 12.0 N 22 33 12 18 1014.8 1014.6 0.0
01/05:30pm 31.0 25.4 8.7 25 12.4 N 28 41 15 22 1014.9 1014.7 0.0
01/05:00pm 30.3 25.7 8.1 25 12.2 N 22 33 12 18 1015.0 1014.8 0.0
01/04:30pm 30.8 25.4 7.9 24 12.6 N 26 37 14 20 1015.2 1015.0 0.0
01/04:00pm 30.4 24.7 8.2 25 12.2 N 28 39 15 21 1015.5 1015.3 0.0
01/03:30pm 30.6 25.1 7.7 24 12.6 N 26 39 14 21 1015.8 1015.6 0.0
01/03:00pm 31.3 25.6 8.3 24 12.8 N 28 39 15 21 1016.2 1016.0 0.0
01/02:30pm 30.7 24.5 7.8 24 12.6 N 30 39 16 21 1016.6 1016.4 0.0
01/02:00pm 30.6 25.8 8.9 26 12.1 N 24 37 13 20 1017.1 1016.9 0.0
01/01:30pm 30.3 24.8 9.2 27 11.8 N 28 39 15 21 1017.7 1017.6 0.0
01/01:00pm 30.6 25.6 9.5 27 11.9 N 26 39 14 21 1018.4 1018.3 0.0
01/12:30pm 29.5 25.4 10.1 30 11.0 N 22 30 12 16 1019.1 1019.0 0.0
01/12:00pm 27.5 22.6 9.8 33 9.9 N 26 35 14 19 1019.5 1019.4 0.0
01/11:30am 27.2 22.7 10.0 34 9.6 N 24 35 13 19 1019.9 1019.8 0.0
01/11:00am 26.4 22.0 10.5 37 8.9 N 24 28 13 15 1020.2 1020.1 0.0
01/10:30am 25.1 20.5 10.9 41 8.0 NNE 26 32 14 17 1020.6 1020.3 0.0
01/10:00am 24.0 19.4 11.0 44 7.3 NNE 26 35 14 19 1020.9 1020.6 0.0
01/09:30am 22.7 18.3 10.5 46 6.7 NNE 24 35 13 19 1020.9 1020.6 0.0
01/09:00am 21.3 16.2 9.2 46 6.5 NNE 26 32 14 17 1020.7 1020.4 0.0
01/08:30am 20.1 15.4 9.1 49 5.8 NNE 24 30 13 16 1020.4 1020.1 0.0
01/08:00am 19.1 14.6 8.4 50 5.5 NNE 22 28 12 15 1020.3 1020.0 0.0
01/07:30am 18.8 13.8 8.2 50 5.5 NNE 24 30 13 16 1020.1 1019.8 0.0
01/07:00am 19.1 14.1 8.1 49 5.7 NNE 24 32 13 17 1019.9 1019.6 0.0
01/06:30am 19.8 15.6 8.2 47 6.0 NNE 20 26 11 14 1019.7 1019.4 0.0
01/06:00am 20.4 15.9 8.4 46 6.3 NE 22 30 12 16 1019.4 1019.1 0.0
01/05:30am 20.3 16.7 8.3 46 6.3 NE 17 22 9 12 1019.5 1019.2 0.0
01/05:00am 19.6 17.1 8.3 48 5.9 NE 11 17 6 9 1019.6 1019.3 0.0
01/04:30am 19.7 16.0 8.1 47 6.0 ENE 17 24 9 13 1019.5 1019.2 0.0
01/04:00am 18.2 15.1 5.4 43 6.2 ENE 11 15 6 8 1019.6 1019.3 0.0
01/03:30am 18.5 15.2 4.7 40 6.6 E 11 15 6 8 1020.1 1019.8 0.0
01/03:00am 17.3 13.2 2.5 37 6.7 E 13 15 7 8 1020.4 1020.1 0.0
01/02:30am 17.6 13.9 2.4 36 6.9 E 11 13 6 7 1021.0 1020.7 0.0
01/02:00am 18.1 14.7 2.0 34 7.3 E 9 11 5 6 1021.1 1020.8 0.0
01/01:30am 18.3 15.0 2.2 34 7.4 E 9 11 5 6 1021.1 1020.8 0.0
01/01:00am 18.1 14.7 1.6 33 7.4 E 9 9 5 5 1021.4 1021.1 0.0
01/12:30am 18.1 14.7 1.6 33 7.4 E 9 11 5 6 1021.5 1021.2 0.0
01/12:00am 18.1 14.9 0.7 31 7.7 ESE 7 11 4 6 1021.7 1021.4 0.0
 
Date/Time
EDT
Temp
°C
App
Temp
°C
Dew
Point
Rel
Hum
%
Delta-T
°C
Wind Press
QNH
hPa
Press
MSL
hPa
Rain
since 9 am
mm
Dir
 
Spd
km/h
Gust
km/h
Spd
kts
Gust
kts
31/11:30pm 19.4 15.8 0.9 29 8.3 ESE 9 11 5 6 1021.7 1021.4 0.0
31/11:00pm 18.5 15.9 1.1 31 7.8 ESE 4 11 2 6 1021.7 1021.4 0.0
31/10:30pm 18.7 16.5 -1.2 26 8.5 CALM 0 0 0 0 1022.0 1021.7 0.0
31/10:00pm 19.8 17.9 0.8 28 8.5 CALM 0 0 0 0 1022.0 1021.7 0.0
31/09:30pm 20.7 17.6 1.1 27 8.9 ESE 7 7 4 4 1021.7 1021.4 0.0
31/09:00pm 21.9 18.3 0.4 24 9.7 ESE 9 11 5 6 1021.5 1021.2 0.0
31/08:30pm 22.9 19.8 1.3 24 10.1 ESE 7 7 4 4 1021.5 1021.2 0.0
31/08:00pm 24.1 21.0 1.1 22 10.7 E 7 9 4 5 1021.1 1020.8 0.0
31/07:30pm 25.8 22.2 0.5 19 11.9 ESE 9 11 5 6 1020.9 1020.6 0.0
31/07:00pm 27.8 24.1 -0.3 16 13.1 E 9 13 5 7 1020.8 1020.5 0.0
31/06:30pm 29.1 25.0 -0.1 15 13.9 E 11 15 6 8 1020.6 1020.3 0.0
31/06:00pm 29.5 24.7 0.2 15 14.0 ESE 15 22 8 12 1020.4 1020.1 0.0
31/05:30pm 30.0 24.6 -1.4 13 14.7 E 17 22 9 12 1020.6 1020.3 0.0
31/05:00pm 30.1 24.8 -0.3 14 14.5 ESE 17 24 9 13 1020.6 1020.3 0.0
31/04:30pm 30.3 26.7 0.8 15 14.4 E 9 15 5 8 1020.7 1020.4 0.0
31/04:00pm 30.1 25.9 1.5 16 14.0 E 13 26 7 14 1020.8 1020.5 0.0
31/03:30pm 29.8 24.5 2.1 17 13.7 SE 19 26 10 14 1021.3 1021.0 0.0
31/03:00pm 29.3 24.4 1.7 17 13.5 ESE 17 20 9 11 1021.8 1021.5 0.0
31/02:30pm 29.2 24.8 2.5 18 13.3 ESE 15 22 8 12 1022.3 1022.0 0.0
31/02:00pm 29.0 24.1 2.3 18 13.2 SE 17 24 9 13 1022.9 1022.5 0.0
31/01:30pm 28.6 25.0 2.7 19 12.9 E 11 20 6 11 1023.5 1023.1 0.0
31/01:00pm 28.2 25.6 3.1 20 12.5 SE 6 15 3 8 1024.1 1023.8 0.0
31/12:30pm 27.9 24.3 2.9 20 12.4 ENE 11 22 6 12 1024.7 1024.4 0.0
31/12:00pm 27.8 24.3 3.5 21 12.1 ENE 11 17 6 9 1025.2 1024.9 0.0
31/11:30am 27.0 24.6 4.1 23 11.6 ENE 6 15 3 8 1025.4 1025.1 0.0
31/11:00am 26.0 23.5 3.9 24 11.0 E 6 9 3 5 1025.8 1025.5 0.0
31/10:30am 24.0 20.6 3.9 27 9.9 ENE 11 13 6 7 1025.6 1025.3 0.0
31/10:00am 22.0 18.4 3.2 29 9.0 ESE 11 15 6 8 1025.5 1025.2 0.0
31/09:30am 20.3 16.6 2.6 31 8.3 ESE 11 19 6 10 1025.3 1025.0 0.0
31/09:00am 17.9 14.6 2.6 36 7.0 ESE 9 13 5 7 1024.8 1024.5 0.0
31/08:30am 15.1 11.7 1.6 40 5.9 ESE 9 11 5 6 1024.7 1024.4 0.0
31/08:00am 12.8 9.3 1.2 45 4.9 E 9 11 5 6 1024.4 1024.1 0.0
31/07:30am 12.2 8.2 0.6 45 4.9 ESE 11 11 6 6 1024.1 1023.8 0.0
31/07:00am 12.6 8.6 0.4 43 5.1 SE 11 13 6 7 1023.8 1023.4 0.0
31/06:30am 12.6 8.3 1.0 45 4.9 SSE 13 17 7 9 1023.6 1023.2 0.0
31/06:00am 12.7 9.3 1.7 47 4.7 ESE 9 11 5 6 1023.2 1022.8 0.0
31/05:30am 12.2 8.6 0.3 44 4.9 ESE 9 11 5 6 1023.0 1022.6 0.0
31/05:00am 12.6 9.0 0.4 43 5.1 ESE 9 9 5 5 1023.0 1022.6 0.0
31/04:30am 13.3 9.7 0.3 41 5.5 ESE 9 9 5 5 1023.0 1022.6 0.0
31/04:00am 13.6 9.9 -0.1 39 5.7 E 9 13 5 7 1023.2 1022.8 0.0
31/03:30am 14.0 9.6 0.3 39 5.8 ESE 13 15 7 8 1023.5 1023.1 0.0
31/03:00am 12.9 9.0 -1.4 37 5.7 ESE 9 11 5 6 1023.4 1023.0 0.0
31/02:30am 13.3 9.9 -0.7 38 5.8 ESE 7 9 4 5 1023.4 1023.0 0.0
31/02:00am 13.9 10.4 -1.3 35 6.2 E 7 9 4 5 1023.5 1023.1 0.0
31/01:30am 15.3 12.0 0.3 36 6.4 E 7 7 4 4 1023.6 1023.2 0.0
31/01:00am 15.8 13.3 -0.8 32 6.9 ESE 2 6 1 3 1023.7 1023.3 0.0
31/12:30am 17.8 14.2 0.5 31 7.6 SE 9 13 5 7 1023.7 1023.3 0.0
31/12:00am 18.3 14.7 0.9 31 7.7 SE 9 11 5 6 1023.9 1023.5 0.0
 
Date/Time
EDT
Temp
°C
App
Temp
°C
Dew
Point
Rel
Hum
%
Delta-T
°C
Wind Press
QNH
hPa
Press
MSL
hPa
Rain
since 9 am
mm
Dir
 
Spd
km/h
Gust
km/h
Spd
kts
Gust
kts
30/11:30pm 16.6 14.7 0.7 34 6.9 CALM 0 0 0 0 1023.8 1023.4 0.0
30/11:00pm 16.7 14.6 -0.9 30 7.4 CALM 0 0 0 0 1023.8 1023.4 0.0
30/10:30pm 17.5 15.6 0.6 32 7.4 CALM 0 0 0 0 1023.7 1023.3 0.0
30/10:00pm 18.2 16.3 0.8 31 7.7 CALM 0 0 0 0 1023.6 1023.2 0.0
30/09:30pm 18.4 16.5 0.5 30 7.9 CALM 0 0 0 0 1023.5 1023.1 0.0
30/09:00pm 20.6 19.1 2.9 31 8.3 CALM 0 0 0 0 1023.2 1022.8 0.0
30/08:30pm 21.3 19.5 1.0 26 9.3 CALM 0 0 0 0 1023.1 1022.7 0.0
30/08:00pm 22.8 21.0 1.2 24 10.0 CALM 0 0 0 0 1022.9 1022.5 0.0
30/07:30pm 25.0 23.3 1.8 22 11.1 CALM 0 0 0 0 1022.4 1022.1 0.0
30/07:00pm 26.8 23.8 2.0 20 12.0 SSW 7 13 4 7 1022.3 1022.0 0.0
30/06:30pm 27.9 24.6 2.2 19 12.6 SSW 9 13 5 7 1022.1 1021.8 0.0
30/06:00pm 28.3 24.5 1.7 18 12.9 SSW 11 19 6 10 1021.9 1021.6 0.0
30/05:30pm 28.2 25.5 2.4 19 12.7 SSE 6 17 3 9 1021.7 1021.4 0.0
30/05:00pm 28.3 25.4 2.5 19 12.7 SW 7 15 4 8 1021.5 1021.2 0.0
30/04:30pm 28.5 25.6 2.7 19 12.8 WSW 7 17 4 9 1021.5 1021.2 0.0
30/04:00pm 28.1 25.5 3.0 20 12.5 N 6 17 3 9 1021.7 1021.4 0.0
30/03:30pm 28.0 24.8 3.0 20 12.5 S 9 15 5 8 1021.9 1021.6 0.0
30/03:00pm 28.5 24.6 3.4 20 12.6 NNW 13 30 7 16 1022.1 1021.8 0.0
30/02:30pm 27.3 24.8 3.7 22 11.9 SSE 6 19 3 10 1022.3 1022.0 0.0
30/02:00pm 26.7 23.7 3.9 23 11.4 N 9 17 5 9 1022.9 1022.5 0.0
30/01:30pm 26.9 24.3 4.0 23 11.5 NNE 7 13 4 7 1023.3 1022.9 0.0
30/01:00pm 26.3 23.9 4.1 24 11.1 ENE 6 17 3 9 1023.8 1023.4 0.0
30/12:30pm 26.1 23.2 4.6 25 10.9 NE 9 19 5 10 1024.1 1023.8 0.0
30/12:00pm 26.0 24.1 5.0 26 10.7 ENE 4 13 2 7 1024.5 1024.2 0.0
30/11:30am 25.6 23.8 5.2 27 10.4 ENE 4 13 2 7 1024.9 1024.6 0.0

Other Formats:

Comma delimited format used in spreadsheet applications
http://www.bom.gov.au/fwo/IDN60801/IDN60801.94702.axf

JavaScript Object Notation format (JSON) in row-major order
http://www.bom.gov.au/fwo/IDN60801/IDN60801.94702.json